createdAt,value
2023-01-07T00:00:00.928Z,4.67
2023-01-07T00:01:00.919Z,4.70
2023-01-07T00:02:00.932Z,4.73
2023-01-07T00:03:00.990Z,4.70
2023-01-07T00:04:01.039Z,4.84
2023-01-07T00:05:01.010Z,4.82
2023-01-07T00:06:00.962Z,4.80
2023-01-07T00:07:00.976Z,4.82
2023-01-07T00:08:00.980Z,4.77
2023-01-07T00:09:00.992Z,4.88
2023-01-07T00:10:00.999Z,4.80
2023-01-07T00:11:01.004Z,4.88
2023-01-07T00:12:01.008Z,4.89
2023-01-07T00:13:01.013Z,4.82
2023-01-07T00:14:01.168Z,4.77
2023-01-07T00:15:01.027Z,4.82
2023-01-07T00:16:01.091Z,4.75
2023-01-07T00:17:01.045Z,4.80
2023-01-07T00:18:01.053Z,4.91
2023-01-07T00:19:01.066Z,4.82
2023-01-07T00:20:01.077Z,4.84
2023-01-07T00:21:01.086Z,4.84
2023-01-07T00:22:01.088Z,4.78
2023-01-07T00:23:01.096Z,4.77
2023-01-07T00:24:01.105Z,4.72
2023-01-07T00:25:01.115Z,4.73
2023-01-07T00:26:01.122Z,4.70
2023-01-07T00:27:01.120Z,4.67
2023-01-07T00:28:01.139Z,4.69
2023-01-07T00:29:01.220Z,4.73
2023-01-07T00:30:01.269Z,4.50
2023-01-07T00:31:01.228Z,4.60
2023-01-07T00:32:01.175Z,4.51
2023-01-07T00:33:01.177Z,4.50
2023-01-07T00:34:01.180Z,4.42
2023-01-07T00:35:01.182Z,4.40
2023-01-07T00:36:01.197Z,4.41
2023-01-07T00:37:01.196Z,4.40
2023-01-07T00:38:01.210Z,4.48
2023-01-07T00:39:01.213Z,4.44
2023-01-07T00:40:01.225Z,4.45
2023-01-07T00:41:01.235Z,4.50
2023-01-07T00:42:01.240Z,4.51
2023-01-07T00:43:01.276Z,4.40
2023-01-07T00:44:01.254Z,4.48
2023-01-07T00:45:01.315Z,4.40
2023-01-07T00:46:01.379Z,4.44
2023-01-07T00:47:01.278Z,4.42
2023-01-07T00:48:01.304Z,4.30
2023-01-07T00:49:01.288Z,4.41
2023-01-07T00:50:01.303Z,4.34
2023-01-07T00:51:01.307Z,4.34
2023-01-07T00:52:01.322Z,4.34
2023-01-07T00:53:01.324Z,4.36
2023-01-07T00:54:01.343Z,4.42
2023-01-07T00:55:01.336Z,4.37
2023-01-07T00:56:01.344Z,4.33
2023-01-07T00:57:01.348Z,4.29
2023-01-07T00:58:01.357Z,4.29
2023-01-07T00:59:01.372Z,4.34
2023-01-07T01:00:01.386Z,4.34
2023-01-07T01:01:01.517Z,4.37
2023-01-07T01:02:01.677Z,4.33
2023-01-07T01:03:01.403Z,4.33
2023-01-07T01:04:01.410Z,4.32
2023-01-07T01:05:01.415Z,4.22
2023-01-07T01:06:01.520Z,4.37
2023-01-07T01:07:01.423Z,4.37
2023-01-07T01:08:01.441Z,4.32
2023-01-07T01:09:01.437Z,4.26
2023-01-07T01:10:01.447Z,4.37
2023-01-07T01:11:01.452Z,4.26
2023-01-07T01:12:01.462Z,4.26
2023-01-07T01:13:01.481Z,4.27
2023-01-07T01:14:01.473Z,4.26
2023-01-07T01:15:01.481Z,4.26
2023-01-07T01:16:01.557Z,4.24
2023-01-07T01:17:01.497Z,4.24
2023-01-07T01:18:01.627Z,4.26
2023-01-07T01:19:01.517Z,4.29
2023-01-07T01:20:01.529Z,4.29
2023-01-07T01:21:01.529Z,4.23
2023-01-07T01:22:01.555Z,4.26
2023-01-07T01:23:01.554Z,4.26
2023-01-07T01:24:01.565Z,4.27
2023-01-07T01:25:01.557Z,4.29
2023-01-07T01:26:01.569Z,4.20
2023-01-07T01:27:01.572Z,4.16
2023-01-07T01:28:01.590Z,4.14
2023-01-07T01:29:01.599Z,4.16
2023-01-07T01:30:01.598Z,4.18
2023-01-07T01:31:01.721Z,4.14
2023-01-07T01:32:01.619Z,4.15
2023-01-07T01:33:01.616Z,4.15
2023-01-07T01:34:01.644Z,4.20
2023-01-07T01:35:01.634Z,4.22
2023-01-07T01:36:01.641Z,4.26
2023-01-07T01:37:01.646Z,4.23
2023-01-07T01:38:01.658Z,4.26
2023-01-07T01:39:01.681Z,4.20
2023-01-07T01:40:01.671Z,4.29
2023-01-07T01:41:01.685Z,4.23
2023-01-07T01:42:01.688Z,4.20
2023-01-07T01:43:01.691Z,4.22
2023-01-07T01:44:01.714Z,4.22
2023-01-07T01:45:01.705Z,4.24
2023-01-07T01:46:01.733Z,4.26
2023-01-07T01:47:01.804Z,4.41
2023-01-07T01:48:01.728Z,4.33
2023-01-07T01:49:01.735Z,4.33
2023-01-07T01:50:01.865Z,4.32
2023-01-07T01:51:01.762Z,4.42
2023-01-07T01:52:01.758Z,4.36
2023-01-07T01:53:01.779Z,4.44
2023-01-07T01:54:01.772Z,4.45
2023-01-07T01:55:01.775Z,4.45
2023-01-07T01:56:01.794Z,4.41
2023-01-07T01:57:01.790Z,4.47
2023-01-07T01:58:01.804Z,4.51
2023-01-07T01:59:01.808Z,4.50
2023-01-07T02:00:01.823Z,4.55
2023-01-07T02:01:02.005Z,4.54
2023-01-07T02:02:01.950Z,4.55
2023-01-07T02:03:01.833Z,4.50
2023-01-07T02:04:01.843Z,4.66
2023-01-07T02:05:01.850Z,4.51
2023-01-07T02:06:01.975Z,4.59
2023-01-07T02:07:01.874Z,4.59
2023-01-07T02:08:01.874Z,4.65
2023-01-07T02:09:01.880Z,4.66
2023-01-07T02:10:01.896Z,4.47
2023-01-07T02:11:01.892Z,4.54
2023-01-07T02:12:01.901Z,4.51
2023-01-07T02:13:01.919Z,4.48
2023-01-07T02:14:01.917Z,4.45
2023-01-07T02:15:01.929Z,4.45
2023-01-07T02:16:02.050Z,4.48
2023-01-07T02:17:01.946Z,4.51
2023-01-07T02:18:01.953Z,4.47
2023-01-07T02:19:01.950Z,4.47
2023-01-07T02:20:01.998Z,4.44
2023-01-07T02:21:01.974Z,4.45
2023-01-07T02:22:01.997Z,4.40
2023-01-07T02:23:02.001Z,4.45
2023-01-07T02:24:02.005Z,4.41
2023-01-07T02:25:01.996Z,4.37
2023-01-07T02:26:02.006Z,4.37
2023-01-07T02:27:02.014Z,4.42
2023-01-07T02:28:02.028Z,4.36
2023-01-07T02:29:02.028Z,4.34
2023-01-07T02:30:02.039Z,4.34
2023-01-07T02:31:02.043Z,4.41
2023-01-07T02:32:02.051Z,4.41
2023-01-07T02:33:02.056Z,4.34
2023-01-07T02:34:02.065Z,4.30
2023-01-07T02:35:02.075Z,4.33
2023-01-07T02:36:02.077Z,4.36
2023-01-07T02:37:02.088Z,4.27
2023-01-07T02:38:02.214Z,4.29
2023-01-07T02:39:02.101Z,4.32
2023-01-07T02:40:02.118Z,4.24
2023-01-07T02:41:02.138Z,4.22
2023-01-07T02:42:02.218Z,4.22
2023-01-07T02:43:02.147Z,4.22
2023-01-07T02:44:02.143Z,4.26
2023-01-07T02:45:02.147Z,4.24
2023-01-07T02:46:02.236Z,4.30
2023-01-07T02:47:02.167Z,4.26
2023-01-07T02:48:02.165Z,4.23
2023-01-07T02:49:02.196Z,4.40
2023-01-07T02:50:02.202Z,4.34
2023-01-07T02:51:02.208Z,4.33
2023-01-07T02:52:02.200Z,4.29
2023-01-07T02:53:02.212Z,4.36
2023-01-07T02:54:02.322Z,4.32
2023-01-07T02:55:02.221Z,4.37
2023-01-07T02:56:02.225Z,4.40
2023-01-07T02:57:02.232Z,4.29
2023-01-07T02:58:02.236Z,4.36
2023-01-07T02:59:02.248Z,4.33
2023-01-07T03:00:02.260Z,4.40
2023-01-07T03:01:02.348Z,4.44
2023-01-07T03:02:02.365Z,4.34
2023-01-07T03:03:02.286Z,4.42
2023-01-07T03:04:02.347Z,4.40
2023-01-07T03:05:02.298Z,4.32
2023-01-07T03:06:02.294Z,4.33
2023-01-07T03:07:02.320Z,4.32
2023-01-07T03:08:02.334Z,4.37
2023-01-07T03:09:02.348Z,4.33
2023-01-07T03:10:02.445Z,4.33
2023-01-07T03:11:02.338Z,4.40
2023-01-07T03:12:02.338Z,4.34
2023-01-07T03:13:02.351Z,4.26
2023-01-07T03:14:02.355Z,4.23
2023-01-07T03:15:02.390Z,4.23
2023-01-07T03:16:02.378Z,4.26
2023-01-07T03:17:02.391Z,4.16
2023-01-07T03:18:02.385Z,4.11
2023-01-07T03:19:02.392Z,4.12
2023-01-07T03:20:02.396Z,4.16
2023-01-07T03:21:02.407Z,4.11
2023-01-07T03:22:02.412Z,4.02
2023-01-07T03:23:02.421Z,4.08
2023-01-07T03:24:02.423Z,4.09
2023-01-07T03:25:02.433Z,4.05
2023-01-07T03:26:02.556Z,4.06
2023-01-07T03:27:02.451Z,4.08
2023-01-07T03:28:02.458Z,4.08
2023-01-07T03:29:02.464Z,4.05
2023-01-07T03:30:02.466Z,4.06
2023-01-07T03:31:02.481Z,4.06
2023-01-07T03:32:02.610Z,4.06
2023-01-07T03:33:02.499Z,4.08
2023-01-07T03:34:02.501Z,4.12
2023-01-07T03:35:02.510Z,4.04
2023-01-07T03:36:02.510Z,4.15
2023-01-07T03:37:02.520Z,4.09
2023-01-07T03:38:02.535Z,4.08
2023-01-07T03:39:02.538Z,4.09
2023-01-07T03:40:02.561Z,4.15
2023-01-07T03:41:02.549Z,4.11
2023-01-07T03:42:02.667Z,4.14
2023-01-07T03:43:02.565Z,4.14
2023-01-07T03:44:02.671Z,4.11
2023-01-07T03:45:02.602Z,4.14
2023-01-07T03:46:02.683Z,4.06
2023-01-07T03:47:02.590Z,4.11
2023-01-07T03:48:02.597Z,4.15
2023-01-07T03:49:02.615Z,4.11
2023-01-07T03:50:02.616Z,4.09
2023-01-07T03:51:02.622Z,4.14
2023-01-07T03:52:02.625Z,4.11
2023-01-07T03:53:02.658Z,4.16
2023-01-07T03:54:02.649Z,4.08
2023-01-07T03:55:02.754Z,4.16
2023-01-07T03:56:02.653Z,4.11
2023-01-07T03:57:02.690Z,4.06
2023-01-07T03:58:02.784Z,4.11
2023-01-07T03:59:02.678Z,4.11
2023-01-07T04:00:02.693Z,4.11
2023-01-07T04:01:02.838Z,4.08
2023-01-07T04:02:02.880Z,4.09
2023-01-07T04:03:02.713Z,4.08
2023-01-07T04:04:03.540Z,4.18
2023-01-07T04:05:02.726Z,4.16
2023-01-07T04:06:02.728Z,4.05
2023-01-07T04:07:02.739Z,4.14
2023-01-07T04:08:02.746Z,4.09
2023-01-07T04:09:02.755Z,4.04
2023-01-07T04:10:02.768Z,4.08
2023-01-07T04:11:02.785Z,4.08
2023-01-07T04:12:02.786Z,4.08
2023-01-07T04:13:02.777Z,4.09
2023-01-07T04:14:02.900Z,4.08
2023-01-07T04:15:02.800Z,4.14
2023-01-07T04:16:02.800Z,4.15
2023-01-07T04:17:02.806Z,4.09
2023-01-07T04:18:02.816Z,4.11
2023-01-07T04:19:02.824Z,4.08
2023-01-07T04:20:02.821Z,4.09
2023-01-07T04:21:02.835Z,4.08
2023-01-07T04:22:02.845Z,4.08
2023-01-07T04:23:02.855Z,4.11
2023-01-07T04:24:02.856Z,4.11
2023-01-07T04:25:02.863Z,4.05
2023-01-07T04:26:02.867Z,4.05
2023-01-07T04:27:02.890Z,4.06
2023-01-07T04:28:02.895Z,3.91
2023-01-07T04:29:02.895Z,4.02
2023-01-07T04:30:03.011Z,3.98
2023-01-07T04:31:02.927Z,4.04
2023-01-07T04:32:02.911Z,3.96
2023-01-07T04:33:02.930Z,3.97
2023-01-07T04:34:02.923Z,3.96
2023-01-07T04:35:02.934Z,3.93
2023-01-07T04:36:02.939Z,3.94
2023-01-07T04:37:02.948Z,3.94
2023-01-07T04:38:02.955Z,3.97
2023-01-07T04:39:02.965Z,3.93
2023-01-07T04:40:02.996Z,4.00
2023-01-07T04:41:02.979Z,4.00
2023-01-07T04:42:02.982Z,4.00
2023-01-07T04:43:02.993Z,3.97
2023-01-07T04:44:02.997Z,3.96
2023-01-07T04:45:03.022Z,3.93
2023-01-07T04:46:03.339Z,3.93
2023-01-07T04:47:03.017Z,3.97
2023-01-07T04:48:03.034Z,3.90
2023-01-07T04:49:03.032Z,3.96
2023-01-07T04:50:03.036Z,3.96
2023-01-07T04:51:03.043Z,3.98
2023-01-07T04:52:03.066Z,4.00
2023-01-07T04:53:03.071Z,3.98
2023-01-07T04:54:03.063Z,3.91
2023-01-07T04:55:03.073Z,3.90
2023-01-07T04:56:03.086Z,3.91
2023-01-07T04:57:03.096Z,4.02
2023-01-07T04:58:03.092Z,3.88
2023-01-07T04:59:03.100Z,3.91
2023-01-07T05:00:03.108Z,3.98
2023-01-07T05:01:03.341Z,4.04
2023-01-07T05:02:03.390Z,4.02
2023-01-07T05:03:03.135Z,3.94
2023-01-07T05:04:03.219Z,4.02
2023-01-07T05:05:03.148Z,3.94
2023-01-07T05:06:03.148Z,3.94
2023-01-07T05:07:03.159Z,3.98
2023-01-07T05:08:03.162Z,3.94
2023-01-07T05:09:03.174Z,4.00
2023-01-07T05:10:03.177Z,3.98
2023-01-07T05:11:03.195Z,3.96
2023-01-07T05:12:03.198Z,3.94
2023-01-07T05:13:05.075Z,3.93
2023-01-07T05:14:03.202Z,3.93
2023-01-07T05:15:03.241Z,3.91
2023-01-07T05:16:03.221Z,3.93
2023-01-07T05:17:03.269Z,3.88
2023-01-07T05:18:03.379Z,3.88
2023-01-07T05:19:03.251Z,3.93
2023-01-07T05:20:03.255Z,3.93
2023-01-07T05:21:03.267Z,3.94
2023-01-07T05:22:03.302Z,3.94
2023-01-07T05:23:03.279Z,3.98
2023-01-07T05:24:03.283Z,3.96
2023-01-07T05:25:03.300Z,3.94
2023-01-07T05:26:03.299Z,4.06
2023-01-07T05:27:03.317Z,4.06
2023-01-07T05:28:03.322Z,4.05
2023-01-07T05:29:03.327Z,4.04
2023-01-07T05:30:03.317Z,3.96
2023-01-07T05:31:03.433Z,4.09
2023-01-07T05:32:03.332Z,4.11
2023-01-07T05:33:03.352Z,4.06
2023-01-07T05:34:03.481Z,4.05
2023-01-07T05:35:03.384Z,4.11
2023-01-07T05:36:03.372Z,4.02
2023-01-07T05:37:03.378Z,4.08
2023-01-07T05:38:03.391Z,4.11
2023-01-07T05:39:03.386Z,4.05
2023-01-07T05:40:03.390Z,3.97
2023-01-07T05:41:03.435Z,3.97
2023-01-07T05:42:03.405Z,4.02
2023-01-07T05:43:03.423Z,3.96
2023-01-07T05:44:03.431Z,4.02
2023-01-07T05:45:03.463Z,4.00
2023-01-07T05:46:03.500Z,3.93
2023-01-07T05:47:03.444Z,3.93
2023-01-07T05:48:03.445Z,3.93
2023-01-07T05:49:03.457Z,3.93
2023-01-07T05:50:03.573Z,3.90
2023-01-07T05:51:03.479Z,3.88
2023-01-07T05:52:03.510Z,3.93
2023-01-07T05:53:03.488Z,3.86
2023-01-07T05:54:03.489Z,3.86
2023-01-07T05:55:03.505Z,3.83
2023-01-07T05:56:03.520Z,3.90
2023-01-07T05:57:03.514Z,3.83
2023-01-07T05:58:03.537Z,3.84
2023-01-07T05:59:03.535Z,3.96
2023-01-07T06:00:03.532Z,3.87
2023-01-07T06:01:03.578Z,3.86
2023-01-07T06:02:03.577Z,3.83
2023-01-07T06:03:03.556Z,3.78
2023-01-07T06:04:03.559Z,3.65
2023-01-07T06:05:03.698Z,3.69
2023-01-07T06:06:03.687Z,3.60
2023-01-07T06:07:03.586Z,3.70
2023-01-07T06:08:03.591Z,3.61
2023-01-07T06:09:03.598Z,3.52
2023-01-07T06:10:03.606Z,3.58
2023-01-07T06:11:03.608Z,3.50
2023-01-07T06:12:03.628Z,3.57
2023-01-07T06:13:03.632Z,3.50
2023-01-07T06:14:03.661Z,3.42
2023-01-07T06:15:03.689Z,3.48
2023-01-07T06:16:03.684Z,3.43
2023-01-07T06:17:03.652Z,3.43
2023-01-07T06:18:03.656Z,3.42
2023-01-07T06:19:03.682Z,3.47
2023-01-07T06:20:03.669Z,3.43
2023-01-07T06:21:03.705Z,3.43
2023-01-07T06:22:03.795Z,3.60
2023-01-07T06:23:03.693Z,3.58
2023-01-07T06:24:03.722Z,3.55
2023-01-07T06:25:03.705Z,3.51
2023-01-07T06:26:03.729Z,3.51
2023-01-07T06:27:03.720Z,3.55
2023-01-07T06:28:03.723Z,3.57
2023-01-07T06:29:03.751Z,3.61
2023-01-07T06:30:03.747Z,3.52
2023-01-07T06:31:03.813Z,3.52
2023-01-07T06:32:03.756Z,3.55
2023-01-07T06:33:03.765Z,3.48
2023-01-07T06:34:03.767Z,3.52
2023-01-07T06:35:03.780Z,3.50
2023-01-07T06:36:03.776Z,3.51
2023-01-07T06:37:03.788Z,3.54
2023-01-07T06:38:03.972Z,3.51
2023-01-07T06:39:03.807Z,3.52
2023-01-07T06:40:03.820Z,3.42
2023-01-07T06:41:03.820Z,3.51
2023-01-07T06:42:03.825Z,3.51
2023-01-07T06:43:03.844Z,3.51
2023-01-07T06:44:03.836Z,3.54
2023-01-07T06:45:03.840Z,3.54
2023-01-07T06:46:03.943Z,3.52
2023-01-07T06:47:03.878Z,3.57
2023-01-07T06:48:03.877Z,3.52
2023-01-07T06:49:03.877Z,3.62
2023-01-07T06:50:03.884Z,3.60
2023-01-07T06:51:03.890Z,3.68
2023-01-07T06:52:03.890Z,3.61
2023-01-07T06:53:03.898Z,3.68
2023-01-07T06:54:04.113Z,3.76
2023-01-07T06:55:03.914Z,3.75
2023-01-07T06:56:03.917Z,3.86
2023-01-07T06:57:03.921Z,3.84
2023-01-07T06:58:03.928Z,3.83
2023-01-07T06:59:03.937Z,3.87
2023-01-07T07:00:03.951Z,3.83
2023-01-07T07:01:04.052Z,3.83
2023-01-07T07:02:04.042Z,3.93
2023-01-07T07:03:04.045Z,3.91
2023-01-07T07:04:03.968Z,3.94
2023-01-07T07:05:04.000Z,3.94
2023-01-07T07:06:03.989Z,4.00
2023-01-07T07:07:03.996Z,3.93
2023-01-07T07:08:04.015Z,3.94
2023-01-07T07:09:04.003Z,3.91
2023-01-07T07:10:04.129Z,4.00
2023-01-07T07:11:04.013Z,3.96
2023-01-07T07:12:04.027Z,3.97
2023-01-07T07:13:04.052Z,3.91
2023-01-07T07:14:04.041Z,3.94
2023-01-07T07:15:04.088Z,3.90
2023-01-07T07:16:04.111Z,3.91
2023-01-07T07:17:04.052Z,3.84
2023-01-07T07:18:04.068Z,3.84
2023-01-07T07:19:04.066Z,3.83
2023-01-07T07:20:04.077Z,3.90
2023-01-07T07:21:04.085Z,3.73
2023-01-07T07:22:04.869Z,3.66
2023-01-07T07:23:04.092Z,3.73
2023-01-07T07:24:04.106Z,3.70
2023-01-07T07:26:04.229Z,3.69
2023-01-07T07:27:04.124Z,3.65
2023-01-07T07:28:04.132Z,3.69
2023-01-07T07:29:04.145Z,3.66
2023-01-07T07:30:04.147Z,3.68
2023-01-07T07:31:04.221Z,3.60
2023-01-07T07:32:04.167Z,3.66
2023-01-07T07:33:04.163Z,3.66
2023-01-07T07:34:04.185Z,3.60
2023-01-07T07:35:04.182Z,3.55
2023-01-07T07:36:04.185Z,3.51
2023-01-07T07:37:04.200Z,3.57
2023-01-07T07:38:04.194Z,3.57
2023-01-07T07:39:04.208Z,3.52
2023-01-07T07:40:04.246Z,3.55
2023-01-07T07:41:04.225Z,3.61
2023-01-07T07:42:04.342Z,3.55
2023-01-07T07:43:10.725Z,3.52
2023-01-07T07:44:04.252Z,3.62
2023-01-07T07:45:04.252Z,3.55
2023-01-07T07:46:04.393Z,3.66
2023-01-07T07:47:04.263Z,3.68
2023-01-07T07:48:04.262Z,3.60
2023-01-07T07:49:04.273Z,3.75
2023-01-07T07:50:04.280Z,3.72
2023-01-07T07:51:04.292Z,3.83
2023-01-07T07:52:04.291Z,3.90
2023-01-07T07:53:04.300Z,3.93
2023-01-07T07:54:04.306Z,3.96
2023-01-07T07:55:20.082Z,3.93
2023-01-07T07:56:04.321Z,4.00
2023-01-07T07:57:04.328Z,3.94
2023-01-07T07:58:04.451Z,3.94
2023-01-07T07:59:04.346Z,3.93
2023-01-07T08:00:04.355Z,3.94
2023-01-07T08:01:04.411Z,3.93
2023-01-07T08:02:04.411Z,3.98
2023-01-07T08:03:04.506Z,3.94
2023-01-07T08:04:04.369Z,3.98
2023-01-07T08:05:04.384Z,3.97
2023-01-07T08:06:04.396Z,3.96
2023-01-07T08:07:04.395Z,3.90
2023-01-07T08:08:04.416Z,3.87
2023-01-07T08:09:04.410Z,3.93
2023-01-07T08:10:04.418Z,3.90
2023-01-07T08:11:04.422Z,3.83
2023-01-07T08:12:04.435Z,3.86
2023-01-07T08:13:04.441Z,3.84
2023-01-07T08:14:04.549Z,3.84
2023-01-07T08:15:04.458Z,3.87
2023-01-07T08:16:04.516Z,3.83
2023-01-07T08:17:04.478Z,3.84
2023-01-07T08:18:04.469Z,3.84
2023-01-07T08:19:04.485Z,3.84
2023-01-07T08:20:04.500Z,3.86
2023-01-07T08:21:04.488Z,3.86
2023-01-07T08:22:04.493Z,3.84
2023-01-07T08:23:04.507Z,3.91
2023-01-07T08:24:04.506Z,3.93
2023-01-07T08:25:04.517Z,3.94
2023-01-07T08:26:04.539Z,3.90
2023-01-07T08:27:04.530Z,3.91
2023-01-07T08:28:04.533Z,4.00
2023-01-07T08:29:04.544Z,3.96
2023-01-07T08:30:04.679Z,3.98
2023-01-07T08:31:04.634Z,3.98
2023-01-07T08:32:04.569Z,4.06
2023-01-07T08:33:04.590Z,3.98
2023-01-07T08:34:04.582Z,4.04
2023-01-07T08:35:04.595Z,3.98
2023-01-07T08:36:09.239Z,3.91
2023-01-07T08:37:04.603Z,3.91
2023-01-07T08:38:04.603Z,4.02
2023-01-07T08:39:04.615Z,3.94
2023-01-07T08:40:05.905Z,3.97
2023-01-07T08:41:04.663Z,4.09
2023-01-07T08:42:04.630Z,4.09
2023-01-07T08:43:04.641Z,4.11
2023-01-07T08:44:04.642Z,4.30
2023-01-07T08:45:04.656Z,4.24
2023-01-07T08:46:04.770Z,4.55
2023-01-07T08:47:04.667Z,4.88
2023-01-07T08:48:04.673Z,5.22
2023-01-07T08:49:04.687Z,5.51
2023-01-07T08:50:04.687Z,5.72
2023-01-07T08:51:04.708Z,5.94
2023-01-07T08:52:04.709Z,6.09
2023-01-07T08:53:04.718Z,6.14
2023-01-07T08:54:04.717Z,6.31
2023-01-07T08:55:04.829Z,6.48
2023-01-07T08:56:04.765Z,6.52
2023-01-07T08:57:04.745Z,6.71
2023-01-07T08:58:04.744Z,6.79
2023-01-07T08:59:04.763Z,6.89
2023-01-07T09:00:04.825Z,6.80
2023-01-07T09:01:04.882Z,6.89
2023-01-07T09:02:05.068Z,6.98
2023-01-07T09:03:04.792Z,6.98
2023-01-07T09:04:04.798Z,7.12
2023-01-07T09:05:04.807Z,7.24
2023-01-07T09:06:04.814Z,7.48
2023-01-07T09:07:04.825Z,7.40
2023-01-07T09:08:04.830Z,7.31
2023-01-07T09:09:04.846Z,7.32
2023-01-07T09:10:04.853Z,7.39
2023-01-07T09:11:04.854Z,7.55
2023-01-07T09:12:04.871Z,7.58
2023-01-07T09:13:04.886Z,7.79
2023-01-07T09:14:04.877Z,7.60
2023-01-07T09:15:04.891Z,7.69
2023-01-07T09:16:04.965Z,7.69
2023-01-07T09:17:04.962Z,7.60
2023-01-07T09:18:05.020Z,7.68
2023-01-07T09:19:04.927Z,7.79
2023-01-07T09:20:04.929Z,7.90
2023-01-07T09:21:04.947Z,7.87
2023-01-07T09:22:04.955Z,7.97
2023-01-07T09:23:04.958Z,7.98
2023-01-07T09:24:04.963Z,8.30
2023-01-07T09:25:04.974Z,8.28
2023-01-07T09:26:04.978Z,8.33
2023-01-07T09:27:04.991Z,8.33
2023-01-07T09:28:05.015Z,8.20
2023-01-07T09:29:05.018Z,8.26
2023-01-07T09:30:05.014Z,8.18
2023-01-07T09:31:05.035Z,8.08
2023-01-07T09:32:05.031Z,8.16
2023-01-07T09:33:05.051Z,8.18
2023-01-07T09:34:05.158Z,8.19
2023-01-07T09:35:05.069Z,8.11
2023-01-07T09:36:05.069Z,7.95
2023-01-07T09:37:05.080Z,7.97
2023-01-07T09:38:05.092Z,7.85
2023-01-07T09:39:05.096Z,7.75
2023-01-07T09:40:05.112Z,7.86
2023-01-07T09:41:05.116Z,7.89
2023-01-07T09:42:05.134Z,7.89
2023-01-07T09:43:05.139Z,8.07
2023-01-07T09:44:05.135Z,8.01
2023-01-07T09:45:05.153Z,7.97
2023-01-07T09:46:05.218Z,8.08
2023-01-07T09:47:05.164Z,8.23
2023-01-07T09:48:05.177Z,8.23
2023-01-07T09:49:05.190Z,8.29
2023-01-07T09:50:05.310Z,8.25
2023-01-07T09:51:05.210Z,8.28
2023-01-07T09:52:05.208Z,8.58
2023-01-07T09:53:05.226Z,8.56
2023-01-07T09:54:05.222Z,8.53
2023-01-07T09:55:05.240Z,8.61
2023-01-07T09:56:11.614Z,8.81
2023-01-07T09:57:05.267Z,9.14
2023-01-07T09:58:05.262Z,9.21
2023-01-07T09:59:05.273Z,9.48
2023-01-07T10:00:05.284Z,9.32
2023-01-07T10:01:05.342Z,9.18
2023-01-07T10:02:05.325Z,8.98
2023-01-07T10:03:05.317Z,9.01
2023-01-07T10:04:05.468Z,9.24
2023-01-07T10:05:05.353Z,9.35
2023-01-07T10:06:05.561Z,9.53
2023-01-07T10:07:05.355Z,10.07
2023-01-07T10:08:31.119Z,10.30
2023-01-07T10:09:05.372Z,10.22
2023-01-07T10:10:05.469Z,9.68
2023-01-07T10:11:05.387Z,9.33
2023-01-07T10:12:05.400Z,9.28
2023-01-07T10:13:05.410Z,9.43
2023-01-07T10:14:05.416Z,9.33
2023-01-07T10:15:05.430Z,9.33
2023-01-07T10:16:05.549Z,9.58
2023-01-07T10:17:05.462Z,9.87
2023-01-07T10:18:05.459Z,10.07
2023-01-07T10:19:05.480Z,10.04
2023-01-07T10:20:05.494Z,9.71
2023-01-07T10:21:05.494Z,10.07
2023-01-07T10:22:05.614Z,10.32
2023-01-07T10:23:05.511Z,10.23
2023-01-07T10:24:05.528Z,10.30
2023-01-07T10:25:05.535Z,10.27
2023-01-07T10:26:05.540Z,10.52
2023-01-07T10:27:05.554Z,10.34
2023-01-07T10:28:05.565Z,10.30
2023-01-07T10:29:05.578Z,10.29
2023-01-07T10:30:05.581Z,10.60
2023-01-07T10:31:05.603Z,10.33
2023-01-07T10:32:05.606Z,9.96
2023-01-07T10:33:05.621Z,10.08
2023-01-07T10:34:05.632Z,10.12
2023-01-07T10:35:05.661Z,10.12
2023-01-07T10:36:05.650Z,10.33
2023-01-07T10:37:05.660Z,10.08
2023-01-07T10:38:05.789Z,10.23
2023-01-07T10:39:05.687Z,10.47
2023-01-07T10:40:05.696Z,10.68
2023-01-07T10:41:05.709Z,10.38
2023-01-07T10:42:05.718Z,10.64
2023-01-07T10:43:05.740Z,10.60
2023-01-07T10:44:05.745Z,10.36
2023-01-07T10:45:05.752Z,10.47
2023-01-07T10:46:05.879Z,10.81
2023-01-07T10:47:05.774Z,10.86
2023-01-07T10:48:05.784Z,11.10
2023-01-07T10:49:05.799Z,10.51
2023-01-07T10:50:05.822Z,10.81
2023-01-07T10:51:05.819Z,10.76
2023-01-07T10:52:05.831Z,10.76
2023-01-07T10:53:05.850Z,10.48
2023-01-07T10:54:05.971Z,10.45
2023-01-07T10:55:05.880Z,10.66
2023-01-07T10:56:05.909Z,10.67
2023-01-07T10:57:05.893Z,10.76
2023-01-07T10:58:06.002Z,10.55
2023-01-07T10:59:05.910Z,10.71
2023-01-07T11:00:05.920Z,11.03
2023-01-07T11:01:06.130Z,10.47
2023-01-07T11:02:06.184Z,10.23
2023-01-07T11:03:06.026Z,10.30
2023-01-07T11:04:05.981Z,10.51
2023-01-07T11:05:05.991Z,10.20
2023-01-07T11:06:05.991Z,10.47
2023-01-07T11:07:06.023Z,10.85
2023-01-07T11:08:06.017Z,11.35
2023-01-07T11:09:06.031Z,11.37
2023-01-07T11:10:06.075Z,11.07
2023-01-07T11:11:06.057Z,11.00
2023-01-07T11:12:06.068Z,11.03
2023-01-07T11:13:06.078Z,11.04
2023-01-07T11:14:06.096Z,10.94
2023-01-07T11:15:06.110Z,10.88
2023-01-07T11:16:06.112Z,10.78
2023-01-07T11:17:06.123Z,10.73
2023-01-07T11:18:06.146Z,11.07
2023-01-07T11:19:06.161Z,11.40
2023-01-07T11:20:06.197Z,11.46
2023-01-07T11:21:06.177Z,11.32
2023-01-07T11:22:06.189Z,10.89
2023-01-07T11:23:06.195Z,10.82
2023-01-07T11:24:06.214Z,10.73
2023-01-07T11:25:06.220Z,10.89
2023-01-07T11:26:06.349Z,10.89
2023-01-07T11:27:06.249Z,10.94
2023-01-07T11:28:06.262Z,10.86
2023-01-07T11:29:06.328Z,10.66
2023-01-07T11:30:06.299Z,10.56
2023-01-07T11:31:06.292Z,10.85
2023-01-07T11:32:06.449Z,11.11
2023-01-07T11:33:06.315Z,11.44
2023-01-07T11:34:06.333Z,11.24
2023-01-07T11:35:06.367Z,11.54
2023-01-07T11:36:06.367Z,11.43
2023-01-07T11:37:06.381Z,10.92
2023-01-07T11:38:06.387Z,10.97
2023-01-07T11:39:06.392Z,10.89
2023-01-07T11:40:06.412Z,11.19
2023-01-07T11:41:06.442Z,10.59
2023-01-07T11:42:06.568Z,10.84
2023-01-07T11:43:06.441Z,11.09
2023-01-07T11:44:06.459Z,11.10
2023-01-07T11:45:06.466Z,11.36
2023-01-07T11:46:19.106Z,11.58
2023-01-07T11:47:06.491Z,11.64
2023-01-07T11:48:06.537Z,11.88
2023-01-07T11:49:06.520Z,11.86
2023-01-07T11:50:06.529Z,11.95
2023-01-07T11:51:06.545Z,12.32
2023-01-07T11:52:06.556Z,12.04
2023-01-07T11:53:06.566Z,11.91
2023-01-07T11:54:06.586Z,11.85
2023-01-07T11:55:06.595Z,11.96
2023-01-07T11:56:06.615Z,12.27
2023-01-07T11:57:06.618Z,11.83
2023-01-07T11:58:28.667Z,11.80
2023-01-07T11:59:06.644Z,11.39
2023-01-07T12:00:06.691Z,11.64
2023-01-07T12:01:06.837Z,11.14
2023-01-07T12:02:06.768Z,10.32
2023-01-07T12:03:06.744Z,10.99
2023-01-07T12:04:06.716Z,11.09
2023-01-07T12:05:06.728Z,11.39
2023-01-07T12:06:06.748Z,11.72
2023-01-07T12:07:06.754Z,11.46
2023-01-07T12:08:06.761Z,11.18
2023-01-07T12:09:06.775Z,11.29
2023-01-07T12:10:06.791Z,11.11
2023-01-07T12:11:06.801Z,11.25
2023-01-07T12:12:06.832Z,10.91
2023-01-07T12:13:06.827Z,10.99
2023-01-07T12:14:06.961Z,11.11
2023-01-07T12:15:06.863Z,10.89
2023-01-07T12:16:06.960Z,11.02
2023-01-07T12:17:06.888Z,11.15
2023-01-07T12:18:06.994Z,11.27
2023-01-07T12:19:06.905Z,10.99
2023-01-07T12:20:06.962Z,11.25
2023-01-07T12:21:06.938Z,11.36
2023-01-07T12:22:06.960Z,11.82
2023-01-07T12:23:07.011Z,11.75
2023-01-07T12:24:07.014Z,11.49
2023-01-07T12:25:06.987Z,11.15
2023-01-07T12:26:07.001Z,11.25
2023-01-07T12:27:07.012Z,11.64
2023-01-07T12:28:07.032Z,11.37
2023-01-07T12:29:07.060Z,11.35
2023-01-07T12:30:07.219Z,11.51
2023-01-07T12:31:07.144Z,11.65
2023-01-07T12:32:07.079Z,11.62
2023-01-07T12:33:07.091Z,11.83
2023-01-07T12:34:07.103Z,11.64
2023-01-07T12:35:15.125Z,11.85
2023-01-07T12:36:07.129Z,12.10
2023-01-07T12:37:07.145Z,11.80
2023-01-07T12:38:07.192Z,11.00
2023-01-07T12:39:07.173Z,10.89
2023-01-07T12:40:07.185Z,11.00
2023-01-07T12:41:07.194Z,11.24
2023-01-07T12:42:07.210Z,11.18
2023-01-07T12:43:07.223Z,11.37
2023-01-07T12:44:07.242Z,11.03
2023-01-07T12:45:07.249Z,11.00
2023-01-07T12:46:07.458Z,11.27
2023-01-07T12:47:30.505Z,11.39
2023-01-07T12:48:07.291Z,11.43
2023-01-07T12:49:07.314Z,11.70
2023-01-07T12:50:07.313Z,11.61
2023-01-07T12:51:07.328Z,11.40
2023-01-07T12:52:07.349Z,10.92
2023-01-07T12:53:07.356Z,10.88
2023-01-07T12:54:07.368Z,10.68
2023-01-07T12:55:07.384Z,10.79
2023-01-07T12:56:07.399Z,10.96
2023-01-07T12:57:07.406Z,10.79
2023-01-07T12:58:07.434Z,11.02
2023-01-07T12:59:07.438Z,10.48
2023-01-07T13:00:07.472Z,10.44
2023-01-07T13:01:07.637Z,10.55
2023-01-07T13:02:07.699Z,10.11
2023-01-07T13:03:07.489Z,10.30
2023-01-07T13:04:07.500Z,10.27
2023-01-07T13:05:07.515Z,10.32
2023-01-07T13:06:07.530Z,10.34
2023-01-07T13:07:07.537Z,10.48
2023-01-07T13:08:07.558Z,10.73
2023-01-07T13:09:07.590Z,10.59
2023-01-07T13:10:07.590Z,10.73
2023-01-07T13:11:07.592Z,10.70
2023-01-07T13:12:07.604Z,10.66
2023-01-07T13:13:07.614Z,10.61